Dixie Prince — WDC2594 — position and weather

sailwx.info

Track history (hours):
 
Tides and Currents Weather Stations Pressure Air Temp Water Temp Dewpoint Dewpoint Depression Visibility Wind Speed Wind Dir Waves Ship Positions

Dixie Prince

Owner: Kirby Inland Marine LP, Houston, TX. More information available from US FCC via Universal Licensing System and Coast Guard Vessel Documentation Center.

Last reported at 2017-Oct-22 16:31 UTC. Time now 2017-Oct-22 17:11 UTC.
Position N 29°46' W 095°06'.

Length 108 m; draft 2.6 m.

Type: . MMSI: 366995380.

Date/timePositionNaut miles runAvg speedWind from/ knotsBaromVisibWave heightAir tempDewpointWater temp
2017-Oct-22 16:31N 29°46' W 095°06'0 3.7
2017-Oct-22 16:27N 29°46' W 095°05'1 2.4
2017-Oct-22 15:55N 29°47' W 095°04'1 0.1
2017-Oct-22 09:44N 29°46' W 095°05'1 3.2
2017-Oct-22 09:19N 29°45' W 095°04'1 3.9
2017-Oct-22 09:00N 29°44' W 095°03'1 1.1
2017-Oct-22 07:46N 29°44' W 095°01'1 5.7
2017-Oct-22 07:30N 29°44' W 095°03'3 0.3
2017-Oct-21 20:57N 29°46' W 095°05'1 0.9
2017-Oct-21 19:57N 29°46' W 095°06'1 2.4
2017-Oct-21 19:29N 29°45' W 095°06'0 0.4
2017-Oct-21 18:54N 29°45' W 095°06'1 1.8
2017-Oct-21 18:30N 29°46' W 095°06'1 0.4
2017-Oct-21 16:49N 29°45' W 095°06'0 0.5
2017-Oct-21 15:52N 29°46' W 095°06'0 0.5
2017-Oct-21 14:59N 29°45' W 095°06'1 0.8
2017-Oct-21 13:58N 29°46' W 095°05'2 1.3
2017-Oct-21 12:24N 29°44' W 095°03'2 5.9
2017-Oct-21 12:00N 29°43' W 095°01'3 5.9
2017-Oct-21 11:30N 29°41' W 094°59'3 6.6
2017-Oct-21 11:00N 29°38' W 094°58'2 5.0
2017-Oct-21 10:30N 29°37' W 095°00'1 2.2
2017-Oct-21 10:00N 29°37' W 095°02'0 0.1
2017-Oct-21 09:28N 29°37' W 095°02'0 0.0
2017-Oct-21 08:58N 29°37' W 095°02'0 0.0
2017-Oct-21 08:28N 29°37' W 095°02'0 0.0
2017-Oct-21 07:58N 29°37' W 095°02'0 0.0
2017-Oct-21 07:28N 29°37' W 095°02'0 0.0
2017-Oct-21 06:55N 29°37' W 095°02'0 0.0
2017-Oct-21 06:28N 29°37' W 095°02'0 0.0
2017-Oct-21 05:52N 29°37' W 095°02'0 0.0
2017-Oct-21 05:28N 29°37' W 095°02'0 0.0
2017-Oct-21 04:58N 29°37' W 095°02'0 0.0
2017-Oct-21 04:28N 29°37' W 095°02'0 0.0
2017-Oct-21 03:58N 29°37' W 095°02'0 0.0
2017-Oct-21 03:28N 29°37' W 095°02'0 0.0
2017-Oct-21 02:58N 29°37' W 095°02'0 0.0
2017-Oct-21 02:25N 29°37' W 095°02'0 0.0
2017-Oct-21 01:58N 29°37' W 095°02'0 0.0
2017-Oct-21 01:28N 29°37' W 095°02'0 0.0
2017-Oct-21 00:58N 29°37' W 095°02'0 0.0
2017-Oct-21 00:25N 29°37' W 095°02'0 0.0
2017-Oct-20 23:58N 29°37' W 095°02'0 0.1
2017-Oct-20 23:28N 29°37' W 095°01'0 0.0
2017-Oct-20 22:55N 29°37' W 095°01'1 2.3
2017-Oct-20 22:30N 29°37' W 095°00'3 5.1
2017-Oct-20 22:00N 29°38' W 094°58'4 7.2
2017-Oct-20 21:30N 29°41' W 094°59'3 6.6
2017-Oct-20 21:00N 29°44' W 095°02'4 1.0
2017-Oct-20 17:33N 29°46' W 095°05'1 3.8
2017-Oct-20 17:25N 29°46' W 095°05'2 0.5
2017-Oct-20 12:20N 29°44' W 095°07'1 4.4
2017-Oct-20 12:00N 29°44' W 095°08'2 4.2
2017-Oct-20 11:30N 29°45' W 095°11'2 4.3
2017-Oct-20 10:59N 29°44' W 095°13'2 4.1
2017-Oct-20 10:30N 29°43' W 095°15'2 3.6
2017-Oct-20 09:59N 29°45' W 095°17'0 0.0
2017-Oct-20 02:34N 29°45' W 095°17'0 0.2
2017-Oct-20 02:10N 29°45' W 095°17'0 0.1
2017-Oct-20 01:52N 29°45' W 095°17'0 0.0
2017-Oct-20 01:25N 29°45' W 095°17'0 0.0
2017-Oct-20 00:52N 29°45' W 095°17'0 0.0
2017-Oct-20 00:22N 29°45' W 095°17'0 0.0
2017-Oct-19 23:58N 29°45' W 095°17'0 0.0
2017-Oct-19 23:28N 29°45' W 095°17'0 0.0
2017-Oct-19 22:56N 29°45' W 095°17'1 2.6
2017-Oct-19 22:30N 29°44' W 095°17'2 3.9
2017-Oct-19 21:56N 29°43' W 095°14'2 4.0
2017-Oct-19 21:28N 29°44' W 095°12'3 4.1
2017-Oct-19 20:46N 29°44' W 095°09'2 4.5
2017-Oct-19 20:22N 29°44' W 095°07'2 4.1
2017-Oct-19 19:53N 29°46' W 095°05'0 0.2
2017-Oct-19 17:58N 29°46' W 095°05'0 0.1
2017-Oct-19 13:23N 29°46' W 095°05'1 0.2
2017-Oct-19 09:29N 29°47' W 095°05'1 0.1
2017-Oct-18 19:11N 29°46' W 095°05'0 0.1
2017-Oct-18 13:15N 29°46' W 095°05'2 5.5
2017-Oct-18 12:54N 29°44' W 095°07'1 3.3
2017-Oct-18 12:29N 29°44' W 095°08'0 0.0
2017-Oct-18 01:37N 29°44' W 095°08'0 0.3
2017-Oct-18 01:13N 29°44' W 095°08'1 6.0
2017-Oct-18 00:58N 29°45' W 095°07'2 0.3
2017-Oct-17 18:16N 29°46' W 095°05'1 0.3
2017-Oct-17 12:39N 29°45' W 095°06'1 5.2
2017-Oct-17 12:28N 29°45' W 095°06'1 1.5
2017-Oct-17 11:51N 29°45' W 095°06'0 0.0
2017-Oct-17 11:23N 29°45' W 095°06'0 0.2
2017-Oct-17 10:53N 29°45' W 095°06'0 0.6
2017-Oct-17 10:29N 29°45' W 095°06'2 2.9
2017-Oct-17 09:39N 29°47' W 095°04'0 0.6
2017-Oct-17 09:23N 29°47' W 095°04'0 0.0
2017-Oct-17 07:51N 29°47' W 095°04'1 3.5
2017-Oct-17 07:30N 29°46' W 095°05'1 0.2
2017-Oct-17 05:24N 29°46' W 095°06'2 4.7
2017-Oct-17 04:59N 29°44' W 095°07'2 5.1
2017-Oct-17 04:30N 29°45' W 095°10'3 4.9
2017-Oct-17 03:59N 29°44' W 095°12'1 1.9
2017-Oct-17 03:30N 29°44' W 095°14'0 0.0
2017-Oct-17 03:00N 29°44' W 095°14'0 0.2
2017-Oct-17 02:29N 29°44' W 095°13'1 2.7
2017-Oct-17 02:00N 29°44' W 095°12'3 4.8
2017-Oct-17 01:25N 29°44' W 095°09'2 4.7
2017-Oct-17 00:59N 29°44' W 095°07'3 0.2
2017-Oct-16 10:46N 29°46' W 095°05'2 4.6
2017-Oct-16 10:23N 29°45' W 095°04'3 5.8
2017-Oct-16 09:55N 29°43' W 095°01'0 0.0
2017-Oct-16 09:30N 29°43' W 095°01'0 0.0
2017-Oct-16 09:00N 29°43' W 095°01'2 3.6
2017-Oct-16 08:30N 29°44' W 095°03'3 1.3
2017-Oct-16 06:10N 29°44' W 095°06'1 4.9
2017-Oct-16 05:55N 29°44' W 095°08'1 0.3
2017-Oct-16 01:34N 29°44' W 095°07'2 0.3
2017-Oct-15 19:44N 29°46' W 095°05'1 2.3
2017-Oct-15 19:30N 29°45' W 095°06'0 0.0
2017-Oct-15 18:59N 29°45' W 095°06'0 0.0
2017-Oct-15 18:27N 29°45' W 095°06'0 0.0
2017-Oct-15 17:36N 29°45' W 095°06'0 0.0
2017-Oct-15 17:26N 29°45' W 095°06'0 0.0
2017-Oct-15 16:57N 29°45' W 095°06'1 0.2
2017-Oct-15 13:29N 29°46' W 095°05'2 3.5
2017-Oct-15 12:55N 29°44' W 095°07'2 0.6
2017-Oct-15 10:14N 29°44' W 095°08'0 0.0
2017-Oct-15 09:17N 29°44' W 095°08'0 0.0
2017-Oct-15 08:52N 29°44' W 095°08'0 0.0
2017-Oct-15 08:21N 29°44' W 095°08'0 0.0
2017-Oct-15 07:46N 29°44' W 095°08'0 0.0
2017-Oct-15 07:27N 29°44' W 095°08'0 0.0
2017-Oct-15 06:59N 29°44' W 095°08'0 0.0
2017-Oct-15 06:30N 29°44' W 095°08'0 0.0
2017-Oct-15 05:57N 29°44' W 095°08'0 0.0
2017-Oct-15 05:20N 29°44' W 095°08'0 0.0
2017-Oct-15 02:54N 29°44' W 095°08'0 0.0
2017-Oct-15 02:28N 29°44' W 095°08'0 0.0
2017-Oct-15 01:15N 29°44' W 095°08'0 0.0
2017-Oct-14 23:16N 29°44' W 095°08'2 5.8
2017-Oct-14 22:57N 29°45' W 095°06'2 1.3
2017-Oct-14 21:47N 29°46' W 095°05'2 0.6
2017-Oct-14 18:27N 29°44' W 095°07'2 0.1
2017-Oct-14 00:38N 29°46' W 095°05'0 0.0
2017-Oct-13 23:09N 29°46' W 095°05'0 0.0
2017-Oct-13 22:45N 29°46' W 095°05'0 0.0
2017-Oct-13 22:30N 29°46' W 095°05'0 0.0
2017-Oct-13 21:57N 29°46' W 095°05'0 0.0
2017-Oct-13 21:15N 29°46' W 095°05'0 0.0
2017-Oct-13 20:54N 29°46' W 095°05'0 0.3
2017-Oct-13 19:27N 29°45' W 095°06'1 0.1
2017-Oct-13 08:31N 29°44' W 095°06'0 5.1
2017-Oct-13 08:29N 29°44' W 095°07'2 4.8
2017-Oct-13 08:00N 29°44' W 095°09'3 4.3
2017-Oct-13 07:15N 29°43' W 095°13'1 4.8
2017-Oct-13 06:57N 29°43' W 095°14'1 2.6
2017-Oct-13 06:30N 29°44' W 095°16'0 0.0
2017-Oct-13 05:14N 29°44' W 095°16'0 0.0
2017-Oct-13 04:59N 29°44' W 095°16'0 0.0
2017-Oct-13 04:11N 29°44' W 095°16'0 0.0
2017-Oct-13 03:56N 29°44' W 095°16'0 0.0
2017-Oct-13 02:38N 29°44' W 095°16'0 0.0
2017-Oct-13 02:26N 29°44' W 095°16'0 0.0
2017-Oct-13 01:59N 29°44' W 095°16'0 0.0
2017-Oct-13 01:20N 29°44' W 095°16'0 0.0
2017-Oct-13 00:59N 29°44' W 095°16'0 0.2
2017-Oct-13 00:30N 29°44' W 095°16'0 0.1
2017-Oct-12 23:53N 29°44' W 095°16'0 0.0
2017-Oct-12 23:29N 29°44' W 095°16'0 0.0
2017-Oct-12 22:02N 29°44' W 095°16'0 0.0
2017-Oct-12 21:53N 29°44' W 095°16'0 0.0
2017-Oct-12 21:29N 29°44' W 095°16'0 0.0
2017-Oct-12 20:44N 29°44' W 095°16'0 0.0
2017-Oct-12 20:29N 29°44' W 095°16'0 0.0
2017-Oct-12 19:56N 29°44' W 095°16'0 0.0
2017-Oct-12 19:23N 29°44' W 095°16'0 0.0
2017-Oct-12 18:59N 29°44' W 095°16'0 0.0
2017-Oct-12 18:29N 29°44' W 095°16'0 0.0
2017-Oct-12 18:00N 29°44' W 095°16'0 0.6
2017-Oct-12 17:28N 29°44' W 095°15'1 2.5
2017-Oct-12 17:00N 29°43' W 095°14'  
Track history (hours):
 
Tides and Currents Weather Stations Pressure Air Temp Water Temp Dewpoint Dewpoint Depression Visibility Wind Speed Wind Dir Waves Ship Positions

Dixie Prince

Owner: Kirby Inland Marine LP, Houston, TX. More information available from US FCC via Universal Licensing System and Coast Guard Vessel Documentation Center.

Last reported at 2017-Oct-22 16:31 UTC. Time now 2017-Oct-22 17:11 UTC.
Position N 29°46' W 095°06'.

Length 108 m; draft 2.6 m.

Type: . MMSI: 366995380.

Date/timePositionNaut miles runAvg speedWind from/ knotsBaromVisibWave heightAir tempDewpointWater temp
2017-Oct-22 16:31N 29°46' W 095°06'0 3.7
2017-Oct-22 16:27N 29°46' W 095°05'1 2.4
2017-Oct-22 15:55N 29°47' W 095°04'1 0.1
2017-Oct-22 09:44N 29°46' W 095°05'1 3.2
2017-Oct-22 09:19N 29°45' W 095°04'1 3.9
2017-Oct-22 09:00N 29°44' W 095°03'1 1.1
2017-Oct-22 07:46N 29°44' W 095°01'1 5.7
2017-Oct-22 07:30N 29°44' W 095°03'3 0.3
2017-Oct-21 20:57N 29°46' W 095°05'1 0.9
2017-Oct-21 19:57N 29°46' W 095°06'1 2.4
2017-Oct-21 19:29N 29°45' W 095°06'0 0.4
2017-Oct-21 18:54N 29°45' W 095°06'1 1.8
2017-Oct-21 18:30N 29°46' W 095°06'1 0.4
2017-Oct-21 16:49N 29°45' W 095°06'0 0.5
2017-Oct-21 15:52N 29°46' W 095°06'0 0.5
2017-Oct-21 14:59N 29°45' W 095°06'1 0.8
2017-Oct-21 13:58N 29°46' W 095°05'2 1.3
2017-Oct-21 12:24N 29°44' W 095°03'2 5.9
2017-Oct-21 12:00N 29°43' W 095°01'3 5.9
2017-Oct-21 11:30N 29°41' W 094°59'3 6.6
2017-Oct-21 11:00N 29°38' W 094°58'2 5.0
2017-Oct-21 10:30N 29°37' W 095°00'1 2.2
2017-Oct-21 10:00N 29°37' W 095°02'0 0.1
2017-Oct-21 09:28N 29°37' W 095°02'0 0.0
2017-Oct-21 08:58N 29°37' W 095°02'0 0.0
2017-Oct-21 08:28N 29°37' W 095°02'0 0.0
2017-Oct-21 07:58N 29°37' W 095°02'0 0.0
2017-Oct-21 07:28N 29°37' W 095°02'0 0.0
2017-Oct-21 06:55N 29°37' W 095°02'0 0.0
2017-Oct-21 06:28N 29°37' W 095°02'0 0.0
2017-Oct-21 05:52N 29°37' W 095°02'0 0.0
2017-Oct-21 05:28N 29°37' W 095°02'0 0.0
2017-Oct-21 04:58N 29°37' W 095°02'0 0.0
2017-Oct-21 04:28N 29°37' W 095°02'0 0.0
2017-Oct-21 03:58N 29°37' W 095°02'0 0.0
2017-Oct-21 03:28N 29°37' W 095°02'0 0.0
2017-Oct-21 02:58N 29°37' W 095°02'0 0.0
2017-Oct-21 02:25N 29°37' W 095°02'0 0.0
2017-Oct-21 01:58N 29°37' W 095°02'0 0.0
2017-Oct-21 01:28N 29°37' W 095°02'0 0.0
2017-Oct-21 00:58N 29°37' W 095°02'0 0.0
2017-Oct-21 00:25N 29°37' W 095°02'0 0.0
2017-Oct-20 23:58N 29°37' W 095°02'0 0.1
2017-Oct-20 23:28N 29°37' W 095°01'0 0.0
2017-Oct-20 22:55N 29°37' W 095°01'1 2.3
2017-Oct-20 22:30N 29°37' W 095°00'3 5.1
2017-Oct-20 22:00N 29°38' W 094°58'4 7.2
2017-Oct-20 21:30N 29°41' W 094°59'3 6.6
2017-Oct-20 21:00N 29°44' W 095°02'4 1.0
2017-Oct-20 17:33N 29°46' W 095°05'1 3.8
2017-Oct-20 17:25N 29°46' W 095°05'2 0.5
2017-Oct-20 12:20N 29°44' W 095°07'1 4.4
2017-Oct-20 12:00N 29°44' W 095°08'2 4.2
2017-Oct-20 11:30N 29°45' W 095°11'2 4.3
2017-Oct-20 10:59N 29°44' W 095°13'2 4.1
2017-Oct-20 10:30N 29°43' W 095°15'2 3.6
2017-Oct-20 09:59N 29°45' W 095°17'0 0.0
2017-Oct-20 02:34N 29°45' W 095°17'0 0.2
2017-Oct-20 02:10N 29°45' W 095°17'0 0.1
2017-Oct-20 01:52N 29°45' W 095°17'0 0.0
2017-Oct-20 01:25N 29°45' W 095°17'0 0.0
2017-Oct-20 00:52N 29°45' W 095°17'0 0.0
2017-Oct-20 00:22N 29°45' W 095°17'0 0.0
2017-Oct-19 23:58N 29°45' W 095°17'0 0.0
2017-Oct-19 23:28N 29°45' W 095°17'0 0.0
2017-Oct-19 22:56N 29°45' W 095°17'1 2.6
2017-Oct-19 22:30N 29°44' W 095°17'2 3.9
2017-Oct-19 21:56N 29°43' W 095°14'2 4.0
2017-Oct-19 21:28N 29°44' W 095°12'3 4.1
2017-Oct-19 20:46N 29°44' W 095°09'2 4.5
2017-Oct-19 20:22N 29°44' W 095°07'2 4.1
2017-Oct-19 19:53N 29°46' W 095°05'0 0.2
2017-Oct-19 17:58N 29°46' W 095°05'0 0.1
2017-Oct-19 13:23N 29°46' W 095°05'1 0.2
2017-Oct-19 09:29N 29°47' W 095°05'1 0.1
2017-Oct-18 19:11N 29°46' W 095°05'0 0.1
2017-Oct-18 13:15N 29°46' W 095°05'2 5.5
2017-Oct-18 12:54N 29°44' W 095°07'1 3.3
2017-Oct-18 12:29N 29°44' W 095°08'0 0.0
2017-Oct-18 01:37N 29°44' W 095°08'0 0.3
2017-Oct-18 01:13N 29°44' W 095°08'1 6.0
2017-Oct-18 00:58N 29°45' W 095°07'2 0.3
2017-Oct-17 18:16N 29°46' W 095°05'1 0.3
2017-Oct-17 12:39N 29°45' W 095°06'1 5.2
2017-Oct-17 12:28N 29°45' W 095°06'1 1.5
2017-Oct-17 11:51N 29°45' W 095°06'0 0.0
2017-Oct-17 11:23N 29°45' W 095°06'0 0.2
2017-Oct-17 10:53N 29°45' W 095°06'0 0.6
2017-Oct-17 10:29N 29°45' W 095°06'2 2.9
2017-Oct-17 09:39N 29°47' W 095°04'0 0.6
2017-Oct-17 09:23N 29°47' W 095°04'0 0.0
2017-Oct-17 07:51N 29°47' W 095°04'1 3.5
2017-Oct-17 07:30N 29°46' W 095°05'1 0.2
2017-Oct-17 05:24N 29°46' W 095°06'2 4.7
2017-Oct-17 04:59N 29°44' W 095°07'2 5.1
2017-Oct-17 04:30N 29°45' W 095°10'3 4.9
2017-Oct-17 03:59N 29°44' W 095°12'1 1.9
2017-Oct-17 03:30N 29°44' W 095°14'0 0.0
2017-Oct-17 03:00N 29°44' W 095°14'0 0.2
2017-Oct-17 02:29N 29°44' W 095°13'1 2.7
2017-Oct-17 02:00N 29°44' W 095°12'3 4.8
2017-Oct-17 01:25N 29°44' W 095°09'2 4.7
2017-Oct-17 00:59N 29°44' W 095°07'3 0.2
2017-Oct-16 10:46N 29°46' W 095°05'2 4.6
2017-Oct-16 10:23N 29°45' W 095°04'3 5.8
2017-Oct-16 09:55N 29°43' W 095°01'0 0.0
2017-Oct-16 09:30N 29°43' W 095°01'0 0.0
2017-Oct-16 09:00N 29°43' W 095°01'2 3.6
2017-Oct-16 08:30N 29°44' W 095°03'3 1.3
2017-Oct-16 06:10N 29°44' W 095°06'1 4.9
2017-Oct-16 05:55N 29°44' W 095°08'1 0.3
2017-Oct-16 01:34N 29°44' W 095°07'2 0.3
2017-Oct-15 19:44N 29°46' W 095°05'1 2.3
2017-Oct-15 19:30N 29°45' W 095°06'0 0.0
2017-Oct-15 18:59N 29°45' W 095°06'0 0.0
2017-Oct-15 18:27N 29°45' W 095°06'0 0.0
2017-Oct-15 17:36N 29°45' W 095°06'0 0.0
2017-Oct-15 17:26N 29°45' W 095°06'0 0.0
2017-Oct-15 16:57N 29°45' W 095°06'1 0.2
2017-Oct-15 13:29N 29°46' W 095°05'2 3.5
2017-Oct-15 12:55N 29°44' W 095°07'2 0.6
2017-Oct-15 10:14N 29°44' W 095°08'0 0.0
2017-Oct-15 09:17N 29°44' W 095°08'0 0.0
2017-Oct-15 08:52N 29°44' W 095°08'0 0.0
2017-Oct-15 08:21N 29°44' W 095°08'0 0.0
2017-Oct-15 07:46N 29°44' W 095°08'0 0.0
2017-Oct-15 07:27N 29°44' W 095°08'0 0.0
2017-Oct-15 06:59N 29°44' W 095°08'0 0.0
2017-Oct-15 06:30N 29°44' W 095°08'0 0.0
2017-Oct-15 05:57N 29°44' W 095°08'0 0.0
2017-Oct-15 05:20N 29°44' W 095°08'0 0.0
2017-Oct-15 02:54N 29°44' W 095°08'0 0.0
2017-Oct-15 02:28N 29°44' W 095°08'0 0.0
2017-Oct-15 01:15N 29°44' W 095°08'0 0.0
2017-Oct-14 23:16N 29°44' W 095°08'2 5.8
2017-Oct-14 22:57N 29°45' W 095°06'2 1.3
2017-Oct-14 21:47N 29°46' W 095°05'2 0.6
2017-Oct-14 18:27N 29°44' W 095°07'2 0.1
2017-Oct-14 00:38N 29°46' W 095°05'0 0.0
2017-Oct-13 23:09N 29°46' W 095°05'0 0.0
2017-Oct-13 22:45N 29°46' W 095°05'0 0.0
2017-Oct-13 22:30N 29°46' W 095°05'0 0.0
2017-Oct-13 21:57N 29°46' W 095°05'0 0.0
2017-Oct-13 21:15N 29°46' W 095°05'0 0.0
2017-Oct-13 20:54N 29°46' W 095°05'0 0.3
2017-Oct-13 19:27N 29°45' W 095°06'1 0.1
2017-Oct-13 08:31N 29°44' W 095°06'0 5.1
2017-Oct-13 08:29N 29°44' W 095°07'2 4.8
2017-Oct-13 08:00N 29°44' W 095°09'3 4.3
2017-Oct-13 07:15N 29°43' W 095°13'1 4.8
2017-Oct-13 06:57N 29°43' W 095°14'1 2.6
2017-Oct-13 06:30N 29°44' W 095°16'0 0.0
2017-Oct-13 05:14N 29°44' W 095°16'0 0.0
2017-Oct-13 04:59N 29°44' W 095°16'0 0.0
2017-Oct-13 04:11N 29°44' W 095°16'0 0.0
2017-Oct-13 03:56N 29°44' W 095°16'0 0.0
2017-Oct-13 02:38N 29°44' W 095°16'0 0.0
2017-Oct-13 02:26N 29°44' W 095°16'0 0.0
2017-Oct-13 01:59N 29°44' W 095°16'0 0.0
2017-Oct-13 01:20N 29°44' W 095°16'0 0.0
2017-Oct-13 00:59N 29°44' W 095°16'0 0.2
2017-Oct-13 00:30N 29°44' W 095°16'0 0.1
2017-Oct-12 23:53N 29°44' W 095°16'0 0.0
2017-Oct-12 23:29N 29°44' W 095°16'0 0.0
2017-Oct-12 22:02N 29°44' W 095°16'0 0.0
2017-Oct-12 21:53N 29°44' W 095°16'0 0.0
2017-Oct-12 21:29N 29°44' W 095°16'0 0.0
2017-Oct-12 20:44N 29°44' W 095°16'0 0.0
2017-Oct-12 20:29N 29°44' W 095°16'0 0.0
2017-Oct-12 19:56N 29°44' W 095°16'0 0.0
2017-Oct-12 19:23N 29°44' W 095°16'0 0.0
2017-Oct-12 18:59N 29°44' W 095°16'0 0.0
2017-Oct-12 18:29N 29°44' W 095°16'0 0.0
2017-Oct-12 18:00N 29°44' W 095°16'0 0.6
2017-Oct-12 17:28N 29°44' W 095°15'1 2.5
2017-Oct-12 17:00N 29°43' W 095°14'  

Dump ship's entire track history